Time;durP1;ratioP1;P1;durP2;ratioP2;P2;SDS_P1;SDS_P2;PMS_P1;PMS_P2;Temp;Humidity;BMP_temperature;BMP_pressure;BME280_temperature;BME280_humidity;BME280_pressure;Samples;Min_cycle;Max_cycle;Signal;HPM_P1;HPM_P2
2021/09/26 00:00:46;;;;;;;2.20;2.00;;;16.50;99.90;;;;;;5037241;28;20943;-91
2021/09/26 00:03:30;;;;;;;1.70;1.60;;;16.40;99.90;;;;;;5018597;28;20402;-90
2021/09/26 00:06:14;;;;;;;2.17;1.98;;;16.50;99.90;;;;;;5013705;28;20414;-90
2021/09/26 00:08:58;;;;;;;2.20;2.00;;;16.50;99.90;;;;;;5017969;28;20426;-87
2021/09/26 00:11:43;;;;;;;1.90;1.80;;;16.40;99.90;;;;;;5044670;28;20382;-88
2021/09/26 00:14:28;;;;;;;1.77;1.65;;;16.40;99.90;;;;;;5033454;28;20398;-90
2021/09/26 00:17:12;;;;;;;1.80;1.70;;;16.40;99.90;;;;;;5004584;28;20407;-89
2021/09/26 00:19:57;;;;;;;1.80;1.70;;;16.50;99.90;;;;;;5014670;28;20441;-88
2021/09/26 00:22:42;;;;;;;1.67;1.58;;;16.50;99.90;;;;;;5027893;28;20413;-88
2021/09/26 00:25:26;;;;;;;1.70;1.60;;;16.50;99.90;;;;;;5009036;28;20370;-90
2021/09/26 00:28:10;;;;;;;1.93;1.83;;;16.50;99.90;;;;;;5028912;28;20386;-89
2021/09/26 00:30:55;;;;;;;1.70;1.60;;;16.50;99.90;;;;;;5020444;28;20430;-89
2021/09/26 00:33:40;;;;;;;2.23;2.03;;;16.50;99.90;;;;;;5022050;28;20406;-90
2021/09/26 00:36:24;;;;;;;1.90;1.80;;;16.50;99.90;;;;;;5020874;28;20394;-89
2021/09/26 00:39:08;;;;;;;2.40;1.53;;;16.40;99.90;;;;;;5006551;28;20447;-89
2021/09/26 00:41:53;;;;;;;2.00;1.90;;;16.50;99.90;;;;;;5018300;28;20424;-89
2021/09/26 00:44:37;;;;;;;2.03;1.87;;;16.50;99.90;;;;;;5008492;28;20407;-89
2021/09/26 00:47:21;;;;;;;1.93;1.83;;;16.60;99.90;;;;;;5025196;28;20399;-89
2021/09/26 00:50:06;;;;;;;1.80;1.70;;;16.60;99.90;;;;;;5012919;28;20413;-87
2021/09/26 00:52:51;;;;;;;1.80;1.70;;;16.60;99.90;;;;;;5036391;28;20398;-89
2021/09/26 00:55:36;;;;;;;1.93;1.73;;;16.50;99.90;;;;;;5011160;28;20727;-87
2021/09/26 00:58:20;;;;;;;1.55;1.45;;;16.50;99.90;;;;;;5017353;28;20407;-91
2021/09/26 01:01:04;;;;;;;1.70;1.60;;;16.60;99.90;;;;;;5004046;28;20378;-89
2021/09/26 01:03:48;;;;;;;2.03;1.83;;;16.60;99.90;;;;;;5003744;28;20391;-88
2021/09/26 01:06:50;;;;;;;2.47;2.27;;;16.60;99.90;;;;;;5027109;28;20403;-88
2021/09/26 01:09:56;;;;;;;2.22;2.03;;;16.50;99.90;;;;;;5011664;28;20562;-90
2021/09/26 01:13:09;;;;;;;2.17;1.70;;;16.50;99.90;;;;;;5040059;28;20388;-85
2021/09/26 01:16:06;;;;;;;1.77;1.67;;;16.50;99.90;;;;;;5043530;28;20432;-90
2021/09/26 01:19:02;;;;;;;2.10;2.00;;;16.60;99.90;;;;;;5028867;28;20422;-89
2021/09/26 01:22:18;;;;;;;1.92;1.83;;;16.60;99.90;;;;;;5023026;28;20422;-88
2021/09/26 01:25:06;;;;;;;1.83;1.73;;;16.50;99.90;;;;;;5025865;28;20406;-87
2021/09/26 01:28:17;;;;;;;1.92;1.83;;;16.50;99.90;;;;;;5026968;28;20400;-89
2021/09/26 01:31:09;;;;;;;1.77;1.63;;;16.50;99.90;;;;;;5032332;28;20466;-89
2021/09/26 01:34:04;;;;;;;1.60;1.50;;;16.60;99.90;;;;;;5027569;28;20404;-89
2021/09/26 01:36:58;;;;;;;1.70;1.60;;;16.50;99.90;;;;;;5021678;28;20398;-88
2021/09/26 01:39:46;;;;;;;1.70;1.60;;;16.60;99.90;;;;;;5008288;28;20410;-89
2021/09/26 01:42:36;;;;;;;1.70;1.60;;;16.50;99.90;;;;;;5019763;28;20695;-89
2021/09/26 01:45:36;;;;;;;1.77;1.67;;;16.60;99.90;;;;;;5005511;28;20414;-89
2021/09/26 01:48:22;;;;;;;1.48;1.38;;;16.60;99.90;;;;;;5000125;28;20398;-89
2021/09/26 01:51:06;;;;;;;1.67;1.58;;;16.70;99.90;;;;;;5018345;28;20777;-90
2021/09/26 01:53:51;;;;;;;1.70;1.60;;;16.70;99.90;;;;;;5017747;28;20948;-90
2021/09/26 01:56:36;;;;;;;1.80;1.70;;;16.70;99.90;;;;;;5025824;28;20487;-89
2021/09/26 01:59:21;;;;;;;1.60;1.50;;;16.70;99.90;;;;;;5025842;28;20694;-88
2021/09/26 02:02:05;;;;;;;1.85;1.75;;;16.60;99.90;;;;;;5038842;28;20401;-92
2021/09/26 02:04:59;;;;;;;1.55;1.45;;;16.60;99.90;;;;;;5018084;28;20392;-89
2021/09/26 02:07:44;;;;;;;1.90;1.80;;;16.60;99.90;;;;;;5008950;28;20437;-89
2021/09/26 02:10:29;;;;;;;2.23;2.03;;;16.50;99.90;;;;;;5036326;28;20402;-87
2021/09/26 02:13:14;;;;;;;2.20;2.10;;;16.50;99.90;;;;;;5015574;28;20398;-90
2021/09/26 02:15:58;;;;;;;1.70;1.60;;;16.50;99.90;;;;;;5005724;28;20390;-89
2021/09/26 02:18:43;;;;;;;2.10;2.00;;;16.50;99.90;;;;;;5006436;28;20410;-89
2021/09/26 02:21:30;;;;;;;2.20;1.90;;;16.50;99.90;;;;;;5007952;28;20409;-91
2021/09/26 02:24:14;;;;;;;1.92;1.83;;;16.70;99.90;;;;;;5019920;28;20395;-90
2021/09/26 02:26:59;;;;;;;2.08;1.98;;;16.60;99.90;;;;;;5010609;28;20502;-90
2021/09/26 02:29:43;;;;;;;1.70;1.60;;;16.60;99.90;;;;;;5042325;28;20497;-89
2021/09/26 02:32:27;;;;;;;1.80;1.70;;;16.60;99.90;;;;;;5018934;28;20386;-91
2021/09/26 02:35:12;;;;;;;2.10;1.90;;;16.60;99.90;;;;;;5006153;28;20427;-89
2021/09/26 02:37:57;;;;;;;2.50;2.30;;;16.60;99.90;;;;;;5007553;28;20398;-90
2021/09/26 02:40:44;;;;;;;3.00;2.00;;;16.60;99.90;;;;;;5019023;28;20438;-88
2021/09/26 02:43:42;;;;;;;2.08;1.95;;;16.60;99.90;;;;;;5024279;28;21374;-88
2021/09/26 02:46:36;;;;;;;2.13;2.00;;;16.60;99.90;;;;;;5009646;28;20479;-90
2021/09/26 02:49:21;;;;;;;2.20;2.00;;;16.60;99.90;;;;;;5004943;28;20388;-89
2021/09/26 02:52:06;;;;;;;1.90;1.70;;;16.60;99.90;;;;;;5025136;28;20469;-88
2021/09/26 02:54:51;;;;;;;1.70;1.60;;;16.70;99.90;;;;;;5007306;28;20410;-91
2021/09/26 02:57:36;;;;;;;2.08;1.98;;;16.70;99.90;;;;;;5004764;28;20418;-90
2021/09/26 03:00:20;;;;;;;2.28;2.10;;;16.70;99.90;;;;;;5035975;28;20477;-90
2021/09/26 03:03:18;;;;;;;2.10;1.90;;;16.60;99.90;;;;;;5009803;28;20449;-90
2021/09/26 03:06:03;;;;;;;2.08;1.88;;;16.60;99.90;;;;;;5021044;28;20426;-90
2021/09/26 03:08:47;;;;;;;2.38;2.17;;;16.60;99.90;;;;;;5022784;28;20455;-89
2021/09/26 03:11:32;;;;;;;2.63;2.42;;;16.60;99.90;;;;;;5006970;28;20429;-89
2021/09/26 03:14:16;;;;;;;2.30;2.10;;;16.50;99.90;;;;;;4993787;28;20405;-89
2021/09/26 03:17:01;;;;;;;1.80;1.70;;;16.40;99.90;;;;;;5019247;28;20430;-88
2021/09/26 03:19:45;;;;;;;1.70;1.60;;;16.50;99.90;;;;;;5019414;28;20468;-87
2021/09/26 03:22:29;;;;;;;2.40;2.20;;;16.30;99.90;;;;;;5020592;28;20398;-87
2021/09/26 03:25:14;;;;;;;1.90;1.80;;;16.30;99.90;;;;;;4995554;28;21141;-87
2021/09/26 03:27:58;;;;;;;1.90;1.80;;;16.20;99.90;;;;;;5003999;28;20445;-88
2021/09/26 03:30:42;;;;;;;1.77;1.67;;;16.30;99.90;;;;;;5026007;28;20425;-89
2021/09/26 03:33:27;;;;;;;2.13;2.00;;;16.20;99.90;;;;;;5017899;28;20461;-89
2021/09/26 03:36:12;;;;;;;1.40;1.40;;;16.20;99.90;;;;;;5008255;28;20410;-91
2021/09/26 03:38:57;;;;;;;1.50;1.40;;;16.20;99.90;;;;;;5038573;28;20452;-90
2021/09/26 03:41:41;;;;;;;1.67;1.57;;;16.20;99.90;;;;;;5024193;28;20452;-90
2021/09/26 03:44:25;;;;;;;1.65;1.55;;;16.20;99.90;;;;;;5010688;28;20393;-90
2021/09/26 03:47:10;;;;;;;1.83;1.65;;;16.20;99.90;;;;;;5036877;28;20387;-91
2021/09/26 03:49:54;;;;;;;1.73;1.63;;;16.10;99.90;;;;;;5030394;28;20413;-91
2021/09/26 03:52:39;;;;;;;1.67;1.58;;;16.00;99.90;;;;;;5024646;28;20398;-90
2021/09/26 03:55:23;;;;;;;1.80;1.70;;;16.00;99.90;;;;;;5005116;28;20396;-90
2021/09/26 03:58:07;;;;;;;1.70;1.60;;;16.10;99.90;;;;;;5004341;28;20456;-91
2021/09/26 04:00:52;;;;;;;1.80;1.70;;;15.90;99.90;;;;;;5030374;28;20404;-89
2021/09/26 04:03:37;;;;;;;1.70;1.60;;;15.70;99.90;;;;;;5023143;28;20520;-89
2021/09/26 04:06:22;;;;;;;1.70;1.60;;;15.70;99.90;;;;;;5012386;28;20412;-90
2021/09/26 04:09:06;;;;;;;2.00;1.90;;;15.60;99.90;;;;;;5038643;28;20467;-88
2021/09/26 04:11:51;;;;;;;1.60;1.50;;;15.80;99.90;;;;;;5024350;28;20482;-90
2021/09/26 04:14:35;;;;;;;1.63;1.52;;;15.60;99.90;;;;;;5010903;28;20394;-89
2021/09/26 04:17:20;;;;;;;1.80;1.70;;;15.50;99.90;;;;;;5038872;28;20402;-89
2021/09/26 04:20:05;;;;;;;1.92;1.83;;;15.50;99.90;;;;;;5038077;28;20394;-88
2021/09/26 04:22:49;;;;;;;1.70;1.60;;;15.40;99.90;;;;;;5024952;28;20440;-87
2021/09/26 04:25:33;;;;;;;1.67;1.58;;;15.30;99.90;;;;;;5026612;28;20430;-85
2021/09/26 04:28:18;;;;;;;1.73;1.63;;;15.30;99.90;;;;;;5028931;28;20403;-88
2021/09/26 04:31:02;;;;;;;1.70;1.60;;;15.30;99.90;;;;;;5024259;28;20477;-87
2021/09/26 04:33:46;;;;;;;1.85;1.75;;;15.30;99.90;;;;;;5019086;28;20650;-88
2021/09/26 04:36:31;;;;;;;1.92;1.63;;;15.20;99.90;;;;;;5046175;28;20428;-87
2021/09/26 04:39:15;;;;;;;1.65;1.55;;;15.20;99.90;;;;;;5025983;28;20382;-88
2021/09/26 04:42:00;;;;;;;1.98;1.88;;;15.10;99.90;;;;;;5019134;28;20472;-87
2021/09/26 04:44:44;;;;;;;1.60;1.50;;;15.10;99.90;;;;;;5011639;28;20401;-87
2021/09/26 04:47:28;;;;;;;1.73;1.63;;;15.00;99.90;;;;;;5007437;28;20412;-88
2021/09/26 04:50:13;;;;;;;1.90;1.80;;;15.00;99.90;;;;;;4992731;28;20495;-90
2021/09/26 04:52:57;;;;;;;1.83;1.73;;;14.90;99.90;;;;;;4990977;28;20420;-85
2021/09/26 04:55:42;;;;;;;1.83;1.73;;;14.90;99.90;;;;;;4996821;28;20401;-87
2021/09/26 04:58:28;;;;;;;1.80;1.70;;;14.80;99.90;;;;;;5021406;28;20439;-85
2021/09/26 05:01:13;;;;;;;1.93;1.80;;;14.80;99.90;;;;;;5019880;28;20424;-89
2021/09/26 05:03:57;;;;;;;1.80;1.70;;;14.80;99.90;;;;;;5012235;28;20450;-87
2021/09/26 05:06:42;;;;;;;1.73;1.63;;;14.70;99.90;;;;;;5011115;28;20495;-87
2021/09/26 05:09:27;;;;;;;2.72;2.53;;;14.70;99.90;;;;;;5008594;28;20374;-87
2021/09/26 05:12:11;;;;;;;2.03;1.92;;;14.60;99.90;;;;;;5012219;28;20406;-90
2021/09/26 05:15:01;;;;;;;1.95;1.80;;;14.70;99.90;;;;;;4993165;28;20446;-89
2021/09/26 05:17:45;;;;;;;2.17;2.08;;;14.60;99.90;;;;;;5029448;28;20406;-90
2021/09/26 05:20:29;;;;;;;2.03;1.90;;;14.50;99.90;;;;;;5025414;28;20436;-89
2021/09/26 05:23:14;;;;;;;2.00;1.90;;;14.60;99.90;;;;;;5011364;28;20475;-86
2021/09/26 05:25:58;;;;;;;1.92;1.83;;;14.50;99.90;;;;;;5017874;28;20386;-87
2021/09/26 05:28:43;;;;;;;2.20;2.00;;;14.50;99.90;;;;;;5022638;28;20478;-86
2021/09/26 05:31:28;;;;;;;2.20;2.00;;;14.50;99.90;;;;;;5004183;28;20396;-87
2021/09/26 05:34:14;;;;;;;1.83;1.73;;;14.50;99.90;;;;;;5020590;28;20359;-84
2021/09/26 05:36:59;;;;;;;1.95;1.85;;;14.50;99.90;;;;;;5036132;28;20382;-88
2021/09/26 05:39:43;;;;;;;2.17;1.83;;;14.50;99.90;;;;;;5012090;28;20418;-89
2021/09/26 05:42:27;;;;;;;1.98;1.88;;;14.60;99.90;;;;;;5027403;28;20401;-87
2021/09/26 05:45:12;;;;;;;1.88;1.77;;;14.60;99.90;;;;;;5019671;28;20390;-89
2021/09/26 05:47:56;;;;;;;2.10;2.00;;;14.60;99.90;;;;;;5009935;28;20964;-89
2021/09/26 05:50:42;;;;;;;2.40;2.20;;;14.80;99.90;;;;;;5020579;28;20402;-88
2021/09/26 05:53:27;;;;;;;2.38;2.17;;;14.70;99.90;;;;;;5023567;28;20410;-88
2021/09/26 05:56:13;;;;;;;2.17;2.08;;;14.70;99.90;;;;;;5011221;28;20414;-89
2021/09/26 05:58:57;;;;;;;2.03;1.92;;;14.80;99.90;;;;;;5000207;28;20404;-89
2021/09/26 06:01:41;;;;;;;2.15;2.05;;;14.80;99.90;;;;;;5016673;28;20410;-87
2021/09/26 06:04:26;;;;;;;2.13;2.03;;;14.90;99.90;;;;;;5009170;28;20421;-90
2021/09/26 06:07:10;;;;;;;2.10;2.00;;;15.00;99.90;;;;;;5008557;28;20390;-86
2021/09/26 06:09:54;;;;;;;2.10;2.00;;;15.10;99.90;;;;;;5023396;28;20463;-91
2021/09/26 06:12:39;;;;;;;2.25;2.13;;;15.20;99.90;;;;;;5023678;28;20484;-89
2021/09/26 06:15:23;;;;;;;2.17;2.08;;;15.20;99.90;;;;;;5046151;28;20437;-90
2021/09/26 06:18:08;;;;;;;2.08;1.98;;;15.20;99.90;;;;;;5028865;28;20432;-88
2021/09/26 06:20:52;;;;;;;1.80;1.70;;;15.30;99.90;;;;;;5021841;28;20401;-87
2021/09/26 06:23:36;;;;;;;2.00;1.90;;;15.40;99.90;;;;;;5009599;28;20382;-87
2021/09/26 06:26:22;;;;;;;2.00;1.90;;;15.50;99.90;;;;;;5012132;28;20415;-90
2021/09/26 06:29:06;;;;;;;1.85;1.75;;;15.50;99.90;;;;;;5021337;28;20429;-90
2021/09/26 06:31:52;;;;;;;2.67;2.15;;;15.60;99.90;;;;;;5022136;28;20386;-89
2021/09/26 06:34:37;;;;;;;2.25;2.05;;;15.60;99.90;;;;;;4993714;28;20406;-86
2021/09/26 06:37:22;;;;;;;2.63;2.43;;;15.60;99.90;;;;;;5008286;28;20472;-88
2021/09/26 06:40:06;;;;;;;2.22;2.03;;;15.70;99.90;;;;;;5008843;28;20466;-90
2021/09/26 06:42:51;;;;;;;2.22;2.10;;;15.80;99.90;;;;;;5026951;28;20392;-89
2021/09/26 06:45:35;;;;;;;2.33;2.20;;;15.80;99.90;;;;;;5038212;28;20382;-89
2021/09/26 06:48:20;;;;;;;2.50;2.10;;;15.80;99.90;;;;;;5023596;28;20378;-88
2021/09/26 06:51:05;;;;;;;2.78;1.80;;;15.90;99.90;;;;;;5051891;28;20418;-85
2021/09/26 06:53:49;;;;;;;2.30;2.10;;;15.90;99.90;;;;;;5050274;28;20391;-86
2021/09/26 06:56:33;;;;;;;2.58;2.38;;;16.20;99.90;;;;;;5017853;28;20459;-85
2021/09/26 06:59:18;;;;;;;2.45;2.25;;;16.00;99.90;;;;;;5005100;28;20473;-86
2021/09/26 07:02:02;;;;;;;2.95;2.72;;;16.00;99.90;;;;;;4992060;28;20415;-86
2021/09/26 07:04:50;;;;;;;2.55;2.35;;;16.00;99.90;;;;;;4148343;28;10001225;-87
2021/09/26 07:07:35;;;;;;;3.50;2.83;;;16.20;99.90;;;;;;5024543;28;20376;-92
2021/09/26 07:10:20;;;;;;;3.05;2.85;;;16.30;99.90;;;;;;5007481;28;20447;-89
2021/09/26 07:13:04;;;;;;;2.80;2.60;;;16.40;99.90;;;;;;5022707;28;20411;-86
2021/09/26 07:15:49;;;;;;;2.85;2.65;;;16.40;99.90;;;;;;5016052;28;20392;-89
2021/09/26 07:18:33;;;;;;;2.90;2.70;;;16.50;99.90;;;;;;5025243;28;20491;-86
2021/09/26 07:21:18;;;;;;;3.42;2.92;;;16.60;99.90;;;;;;5017838;28;20419;-89
2021/09/26 07:24:02;;;;;;;2.75;2.55;;;16.50;99.90;;;;;;5002903;28;21155;-89
2021/09/26 07:26:47;;;;;;;2.65;2.45;;;16.60;99.90;;;;;;5018600;28;20443;-90
2021/09/26 07:29:31;;;;;;;3.03;2.83;;;16.70;99.90;;;;;;5028910;28;20464;-87
2021/09/26 07:32:15;;;;;;;3.00;2.80;;;16.70;99.90;;;;;;5002658;28;20396;-89
2021/09/26 07:35:00;;;;;;;2.83;2.63;;;16.80;99.90;;;;;;5031639;28;20415;-89
2021/09/26 07:37:44;;;;;;;3.40;3.10;;;16.80;99.90;;;;;;5012947;28;20404;-90
2021/09/26 07:40:29;;;;;;;4.22;2.92;;;17.00;99.90;;;;;;5019074;28;20452;-87
2021/09/26 07:43:13;;;;;;;2.80;2.60;;;17.20;99.90;;;;;;4991972;28;20468;-86
2021/09/26 07:45:57;;;;;;;3.05;2.78;;;17.30;99.90;;;;;;5017327;28;20403;-86
2021/09/26 07:48:42;;;;;;;2.97;2.75;;;17.40;99.90;;;;;;5023557;28;20479;-87
2021/09/26 07:51:26;;;;;;;3.17;2.97;;;17.40;99.90;;;;;;5032760;28;20415;-89
2021/09/26 07:54:13;;;;;;;3.25;2.95;;;17.50;99.90;;;;;;5025246;28;20402;-90
2021/09/26 07:56:58;;;;;;;3.10;2.85;;;17.80;99.90;;;;;;5007842;28;20385;-90
2021/09/26 07:59:42;;;;;;;3.35;3.10;;;17.80;99.90;;;;;;5017251;28;21133;-90
2021/09/26 08:02:27;;;;;;;3.08;2.78;;;18.00;99.90;;;;;;5031271;28;20395;-90
2021/09/26 08:05:11;;;;;;;3.83;3.20;;;18.10;99.90;;;;;;4999745;28;20608;-89
2021/09/26 08:07:56;;;;;;;3.10;2.67;;;18.10;99.90;;;;;;5010368;28;20465;-91
2021/09/26 08:10:40;;;;;;;2.80;2.35;;;18.30;99.90;;;;;;5002609;28;20476;-87
2021/09/26 08:13:24;;;;;;;2.95;2.75;;;18.30;99.90;;;;;;4972377;28;20429;-90
2021/09/26 08:16:09;;;;;;;3.10;2.60;;;18.40;99.90;;;;;;5015566;28;20404;-84
2021/09/26 08:18:53;;;;;;;2.38;2.20;;;18.50;99.90;;;;;;5015199;28;20427;-88
2021/09/26 08:21:37;;;;;;;2.35;2.15;;;18.70;99.90;;;;;;5001095;28;20407;-87
2021/09/26 08:24:22;;;;;;;2.25;2.10;;;18.80;99.90;;;;;;5034794;28;20420;-91
2021/09/26 08:27:06;;;;;;;2.50;2.30;;;18.80;99.90;;;;;;5015745;28;20488;-89
2021/09/26 08:29:51;;;;;;;3.77;2.27;;;19.00;99.90;;;;;;5022157;28;20444;-86
2021/09/26 08:32:38;;;;;;;2.00;1.90;;;19.10;99.90;;;;;;5014207;28;20400;-91
2021/09/26 08:35:23;;;;;;;2.13;2.00;;;19.20;99.90;;;;;;4995192;28;20388;-91
2021/09/26 08:38:08;;;;;;;2.40;2.20;;;19.30;99.90;;;;;;5008364;28;20398;-91
2021/09/26 08:40:52;;;;;;;2.03;1.92;;;19.50;99.90;;;;;;5033402;28;20404;-90
2021/09/26 08:43:37;;;;;;;3.10;2.20;;;19.50;99.90;;;;;;5024589;28;20747;-89
2021/09/26 08:46:21;;;;;;;2.50;2.30;;;19.60;99.90;;;;;;5033729;28;20408;-91
2021/09/26 08:49:05;;;;;;;2.47;2.28;;;19.80;99.90;;;;;;4972547;28;20427;-87
2021/09/26 08:51:51;;;;;;;2.25;2.05;;;19.80;99.90;;;;;;5028941;28;20537;-88
2021/09/26 08:54:36;;;;;;;2.45;2.20;;;19.90;99.90;;;;;;5019718;28;20468;-90
2021/09/26 08:57:22;;;;;;;2.53;2.33;;;20.00;99.90;;;;;;5037056;28;20398;-90
2021/09/26 09:00:07;;;;;;;3.77;2.03;;;20.10;99.90;;;;;;5007640;28;20428;-91
2021/09/26 09:02:58;;;;;;;2.60;2.40;;;20.30;99.90;;;;;;5017658;28;20436;-92
2021/09/26 09:38:19;;;;;;;1.73;1.63;;;21.90;99.90;;;;;;5050093;28;20391;-91
2021/09/26 09:41:04;;;;;;;1.70;1.60;;;22.10;99.90;;;;;;5021794;28;20390;-91
2021/09/26 09:43:49;;;;;;;1.80;1.70;;;22.20;99.90;;;;;;5009381;28;20402;-90
2021/09/26 13:19:20;;;;;;;1.20;1.20;;;29.00;99.20;;;;;;5678312;23;20457;-88
2021/09/26 13:38:15;;;;;;;1.50;1.40;;;28.20;98.40;;;;;;3316520;26;20400;-86
2021/09/26 13:41:46;;;;;;;1.40;1.30;;;28.20;98.30;;;;;;4964235;28;20416;-88
2021/09/26 13:57:17;;;;;;;1.25;1.15;;;28.60;98.90;;;;;;4956503;28;20419;-89
2021/09/26 14:00:30;;;;;;;1.70;1.50;;;28.40;98.10;;;;;;4957328;28;20498;-90
2021/09/26 14:03:29;;;;;;;1.13;1.10;;;27.90;98.60;;;;;;4972901;28;20433;-91
2021/09/26 14:06:22;;;;;;;1.10;1.10;;;27.60;98.70;;;;;;4980559;28;20473;-90
2021/09/26 14:09:10;;;;;;;1.20;1.20;;;27.50;98.20;;;;;;4951418;28;20431;-88
2021/09/26 14:12:02;;;;;;;1.20;1.10;;;27.30;98.30;;;;;;4979246;28;20432;-88
2021/09/26 14:14:50;;;;;;;1.25;1.25;;;27.20;98.00;;;;;;4980420;28;20433;-90
2021/09/26 14:17:38;;;;;;;1.50;1.40;;;26.90;98.30;;;;;;4949318;28;20429;-88
2021/09/26 14:20:25;;;;;;;1.43;1.33;;;26.80;98.20;;;;;;4979731;28;20421;-91
2021/09/26 14:23:11;;;;;;;1.20;1.20;;;26.70;98.00;;;;;;4949757;28;20408;-89
2021/09/26 14:25:57;;;;;;;1.17;1.17;;;26.50;98.40;;;;;;4952588;28;20401;-89
2021/09/26 14:28:43;;;;;;;1.30;1.25;;;26.40;98.60;;;;;;4952021;28;20409;-89
2021/09/26 14:31:28;;;;;;;1.50;1.40;;;26.20;99.80;;;;;;4953104;28;20417;-90
2021/09/26 14:34:13;;;;;;;1.40;1.30;;;26.10;98.70;;;;;;4951900;28;20489;-92
2021/09/26 14:36:57;;;;;;;1.40;1.30;;;26.00;99.50;;;;;;4966182;28;20476;-90
2021/09/26 14:39:42;;;;;;;1.63;1.52;;;25.90;99.40;;;;;;4941395;28;20425;-91
2021/09/26 14:42:27;;;;;;;1.30;1.20;;;25.80;99.90;;;;;;4967282;28;20428;-90
2021/09/26 14:45:14;;;;;;;1.30;1.30;;;25.80;99.90;;;;;;4954740;28;20789;-92
2021/09/26 14:47:58;;;;;;;1.17;1.17;;;25.70;99.90;;;;;;4924202;28;20413;-90
2021/09/26 14:50:43;;;;;;;1.20;1.20;;;25.60;99.90;;;;;;4952907;28;20457;-90
2021/09/26 14:53:28;;;;;;;1.23;1.23;;;25.60;99.90;;;;;;4977560;28;20420;-90
2021/09/26 14:56:15;;;;;;;1.25;1.23;;;25.50;99.90;;;;;;4938146;28;20438;-90
2021/09/26 14:59:00;;;;;;;1.50;1.40;;;25.40;99.90;;;;;;4963146;28;20425;-89
2021/09/26 15:01:44;;;;;;;2.47;1.25;;;25.20;99.90;;;;;;4949580;28;20436;-92
2021/09/26 15:04:29;;;;;;;1.40;1.30;;;25.30;99.90;;;;;;4964068;28;20397;-89
2021/09/26 15:07:14;;;;;;;1.20;1.10;;;25.30;99.90;;;;;;4978898;28;20467;-90
2021/09/26 15:09:58;;;;;;;1.15;1.10;;;25.30;99.90;;;;;;4966258;28;20462;-89
2021/09/26 15:12:43;;;;;;;1.38;1.30;;;25.20;99.90;;;;;;4966115;28;20425;-90
2021/09/26 15:15:28;;;;;;;1.40;1.30;;;25.40;99.90;;;;;;4966078;28;20390;-90
2021/09/26 15:18:13;;;;;;;1.33;1.30;;;25.30;99.90;;;;;;4950720;28;20459;-92
2021/09/26 15:20:59;;;;;;;1.20;1.20;;;25.10;99.90;;;;;;4962597;28;20393;-91
2021/09/26 15:23:46;;;;;;;1.50;1.40;;;25.00;99.90;;;;;;4965308;28;20393;-91
2021/09/26 15:26:32;;;;;;;1.17;1.17;;;25.00;99.90;;;;;;4965608;28;20414;-87
2021/09/26 15:29:17;;;;;;;1.60;1.50;;;25.10;99.90;;;;;;4964143;28;20441;-92
2021/09/26 15:32:02;;;;;;;1.05;1.05;;;25.10;99.90;;;;;;4962198;28;20448;-91
2021/09/26 15:34:46;;;;;;;2.10;1.30;;;25.00;99.90;;;;;;4971326;28;20409;-90
2021/09/26 15:37:34;;;;;;;1.60;1.50;;;25.10;99.90;;;;;;4972037;28;20527;-89
2021/09/26 15:40:21;;;;;;;1.95;1.17;;;25.10;99.90;;;;;;4944227;28;20444;-92
2021/09/26 15:43:06;;;;;;;1.30;1.30;;;24.90;99.90;;;;;;4931562;28;20409;-90
2021/09/26 15:45:51;;;;;;;1.30;1.30;;;24.90;99.90;;;;;;4966095;28;20445;-89
2021/09/26 15:48:36;;;;;;;1.23;1.13;;;24.80;99.90;;;;;;4963062;28;20440;-90
2021/09/26 15:51:20;;;;;;;1.30;1.20;;;24.80;99.90;;;;;;4964275;28;20451;-92
2021/09/26 15:54:05;;;;;;;1.35;1.30;;;24.80;99.90;;;;;;4936092;28;20433;-90
2021/09/26 15:56:49;;;;;;;1.10;1.10;;;24.80;99.90;;;;;;4954425;28;20393;-88
2021/09/26 15:59:34;;;;;;;1.20;1.20;;;24.80;99.90;;;;;;4965438;28;20453;-90
2021/09/26 16:02:18;;;;;;;1.00;1.00;;;24.80;99.90;;;;;;4952373;28;20468;-88
2021/09/26 16:05:03;;;;;;;1.25;1.23;;;24.70;99.90;;;;;;4955614;28;20428;-89
2021/09/26 16:07:48;;;;;;;1.10;1.08;;;24.70;99.90;;;;;;4965567;28;20425;-88
2021/09/26 16:10:33;;;;;;;1.03;1.03;;;24.60;99.90;;;;;;4981627;28;20433;-89
2021/09/26 16:13:17;;;;;;;1.13;1.10;;;24.40;99.90;;;;;;4941667;28;20409;-88
2021/09/26 16:16:02;;;;;;;1.40;1.30;;;24.40;99.90;;;;;;4941695;28;20418;-90
2021/09/26 16:18:46;;;;;;;1.77;1.60;;;24.20;99.90;;;;;;4938421;28;20602;-91
2021/09/26 16:21:31;;;;;;;1.27;1.25;;;24.10;99.90;;;;;;4980384;28;20826;-90
2021/09/26 16:24:15;;;;;;;1.48;1.30;;;23.90;99.90;;;;;;4965915;28;20473;-90
2021/09/26 16:26:59;;;;;;;1.20;1.20;;;23.80;99.90;;;;;;4964231;28;20421;-90
2021/09/26 16:29:44;;;;;;;1.10;1.10;;;23.70;99.90;;;;;;4962803;28;20505;-89
2021/09/26 16:32:29;;;;;;;1.13;1.10;;;23.60;99.90;;;;;;4964607;28;20397;-90
2021/09/26 16:35:14;;;;;;;1.00;1.00;;;23.60;99.90;;;;;;4964792;28;20674;-90
2021/09/26 16:37:58;;;;;;;1.08;1.00;;;23.50;99.90;;;;;;4958590;28;20397;-90
2021/09/26 16:40:43;;;;;;;1.17;1.17;;;23.30;99.90;;;;;;4963502;28;20513;-90
2021/09/26 16:43:27;;;;;;;1.10;1.10;;;23.20;99.90;;;;;;4962124;28;20397;-91
2021/09/26 16:46:12;;;;;;;1.17;1.13;;;23.20;99.90;;;;;;4960909;28;20413;-90
2021/09/26 16:48:56;;;;;;;1.27;1.17;;;23.10;99.90;;;;;;4967294;28;20407;-90
2021/09/26 16:51:41;;;;;;;1.00;1.00;;;23.00;99.90;;;;;;4925447;28;20430;-89
2021/09/26 16:54:26;;;;;;;1.45;1.35;;;22.90;99.90;;;;;;4937305;28;20409;-90
2021/09/26 16:57:10;;;;;;;1.00;1.00;;;22.80;99.90;;;;;;4963483;28;20409;-88
2021/09/26 16:59:54;;;;;;;2.78;1.55;;;22.60;99.90;;;;;;4959096;28;20475;-90
2021/09/26 17:02:38;;;;;;;1.48;1.38;;;22.50;99.90;;;;;;4939739;28;20430;-90
2021/09/26 17:05:24;;;;;;;1.10;1.10;;;22.40;99.90;;;;;;4961882;28;20421;-89
2021/09/26 17:08:09;;;;;;;1.52;1.20;;;22.30;99.90;;;;;;4936696;28;20392;-91
2021/09/26 17:10:53;;;;;;;1.10;1.00;;;22.20;99.90;;;;;;4964343;28;20431;-87
2021/09/26 17:13:43;;;;;;;1.50;1.40;;;22.20;99.90;;;;;;4927248;28;20500;-90
2021/09/26 17:16:28;;;;;;;1.52;1.42;;;22.10;99.90;;;;;;4941331;28;20485;-89
2021/09/26 17:19:12;;;;;;;1.75;1.65;;;22.00;99.90;;;;;;4963040;28;20624;-91
2021/09/26 17:21:56;;;;;;;1.30;1.20;;;21.90;99.90;;;;;;4965671;28;20390;-89
2021/09/26 17:24:41;;;;;;;1.50;1.40;;;21.80;99.90;;;;;;4962859;28;20417;-90
2021/09/26 17:27:25;;;;;;;1.43;1.33;;;21.80;99.90;;;;;;4941824;28;20408;-90
2021/09/26 17:30:12;;;;;;;1.10;1.10;;;21.70;99.90;;;;;;4965174;28;20453;-90
2021/09/26 17:32:58;;;;;;;1.45;1.38;;;21.60;99.90;;;;;;4950977;28;20446;-89
2021/09/26 17:35:43;;;;;;;1.30;1.30;;;21.50;99.90;;;;;;4949012;28;20405;-89
2021/09/26 17:38:28;;;;;;;1.60;1.50;;;21.40;99.90;;;;;;4963811;28;20409;-89
2021/09/26 17:41:13;;;;;;;1.42;1.38;;;21.40;99.90;;;;;;4963750;28;20400;-88
2021/09/26 17:43:58;;;;;;;1.50;1.40;;;21.20;99.90;;;;;;4963873;28;20401;-89
2021/09/26 17:46:42;;;;;;;1.58;1.40;;;21.10;99.90;;;;;;4937405;28;20445;-88
2021/09/26 17:49:27;;;;;;;2.00;1.80;;;21.10;99.90;;;;;;4935522;28;20485;-88
2021/09/26 17:52:12;;;;;;;1.42;1.33;;;21.00;99.90;;;;;;4965626;28;20516;-89
2021/09/26 17:54:56;;;;;;;1.70;1.60;;;20.90;99.90;;;;;;4979012;28;20409;-91
2021/09/26 17:57:42;;;;;;;1.60;1.50;;;20.90;99.90;;;;;;4962969;28;20429;-89
2021/09/26 18:00:27;;;;;;;2.10;2.00;;;20.90;99.90;;;;;;4968002;28;20398;-90
2021/09/26 18:03:12;;;;;;;1.60;1.50;;;20.80;99.90;;;;;;4967551;28;20409;-89
2021/09/26 18:05:57;;;;;;;2.03;1.67;;;20.70;99.90;;;;;;4962888;28;20464;-87
2021/09/26 18:08:41;;;;;;;2.08;1.83;;;20.70;99.90;;;;;;4963501;28;20414;-90
2021/09/26 18:11:26;;;;;;;1.92;1.83;;;20.80;99.90;;;;;;4944570;28;20458;-87
2021/09/26 18:14:11;;;;;;;1.50;1.40;;;20.70;99.90;;;;;;4950597;28;20437;-89
2021/09/26 18:16:55;;;;;;;2.00;1.73;;;20.50;99.90;;;;;;4966937;28;20471;-90
2021/09/26 18:19:40;;;;;;;1.65;1.55;;;20.50;99.90;;;;;;4938729;28;20441;-90
2021/09/26 18:22:25;;;;;;;3.08;2.17;;;20.40;99.90;;;;;;4975915;28;20420;-91
2021/09/26 18:25:12;;;;;;;3.80;1.80;;;20.40;99.90;;;;;;4961807;28;20519;-87
2021/09/26 18:27:57;;;;;;;1.80;1.70;;;20.40;99.90;;;;;;4937538;28;20413;-89
2021/09/26 18:30:43;;;;;;;1.70;1.60;;;20.40;99.90;;;;;;4950579;28;20420;-88
2021/09/26 18:33:29;;;;;;;1.90;1.80;;;20.30;99.90;;;;;;4966527;28;20421;-89
2021/09/26 18:36:15;;;;;;;1.73;1.63;;;20.30;99.90;;;;;;4925862;28;20416;-87
2021/09/26 18:38:59;;;;;;;2.17;1.80;;;20.30;99.90;;;;;;4948336;28;20468;-89
2021/09/26 18:41:45;;;;;;;2.10;1.90;;;20.20;99.90;;;;;;4953139;28;20397;-90
2021/09/26 18:44:30;;;;;;;1.83;1.73;;;20.20;99.90;;;;;;4962966;28;20473;-89
2021/09/26 18:47:14;;;;;;;1.80;1.70;;;20.10;99.90;;;;;;4966170;28;20405;-91
2021/09/26 18:49:58;;;;;;;1.70;1.60;;;20.10;99.90;;;;;;4974180;28;20412;-89
2021/09/26 18:52:43;;;;;;;1.98;1.88;;;20.10;99.90;;;;;;4968396;28;20397;-85
2021/09/26 18:55:27;;;;;;;1.70;1.60;;;20.00;99.90;;;;;;4949468;28;20420;-89